Time;durP1;ratioP1;P1;durP2;ratioP2;P2;SDS_P1;SDS_P2;PMS_P1;PMS_P2;Temp;Humidity;BMP_temperature;BMP_pressure;BME280_temperature;BME280_humidity;BME280_pressure;Samples;Min_cycle;Max_cycle;Signal;HPM_P1;HPM_P2
2024/04/03 00:00:14;;;;;;;;;2.25;0.25;;;;;15.74;100.00;100079.94;2096957;28;46893;-67
2024/04/03 00:01:14;;;;;;;;;2.00;2.00;;;;;15.73;100.00;100080.91;2103754;28;46397;-63
2024/04/03 00:02:15;;;;;;;;;0.67;0.67;;;;;15.73;100.00;100083.56;2102418;27;46389;-64
2024/04/03 00:03:15;;;;;;;;;0.67;0.67;;;;;15.73;100.00;100087.09;2101071;28;46389;-64
2024/04/03 00:04:16;;;;;;;;;0.00;0.00;;;;;15.71;100.00;100086.34;2103153;28;46818;-65
2024/04/03 00:05:16;;;;;;;;;0.00;0.00;;;;;15.67;100.00;100084.78;2106090;28;46577;-64
2024/04/03 00:06:17;;;;;;;;;0.00;0.00;;;;;15.66;100.00;100083.03;2105537;27;46361;-64
2024/04/03 00:07:17;;;;;;;;;0.00;0.00;;;;;15.65;100.00;100070.63;2105508;27;46495;-65
2024/04/03 00:08:18;;;;;;;;;0.33;0.33;;;;;15.63;100.00;100082.34;2105176;27;46944;-63
2024/04/03 00:09:18;;;;;;;;;0.67;0.00;;;;;15.61;100.00;100079.72;2101332;27;46395;-64
2024/04/03 00:10:19;;;;;;;;;0.67;0.67;;;;;15.60;100.00;100078.88;2098940;28;46397;-64
2024/04/03 00:11:19;;;;;;;;;1.00;1.00;;;;;15.61;100.00;100079.72;2100354;28;47072;-64
2024/04/03 00:12:20;;;;;;;;;1.33;1.00;;;;;15.60;100.00;100073.50;2100726;27;45941;-64
2024/04/03 00:13:20;;;;;;;;;1.33;1.33;;;;;15.59;100.00;100073.56;2104294;27;45581;-63
2024/04/03 00:14:20;;;;;;;;;0.00;0.00;;;;;15.59;100.00;100068.22;2101585;28;46256;-64
2024/04/03 00:15:20;;;;;;;;;1.33;0.00;;;;;15.60;100.00;100075.31;2101278;28;46204;-64
2024/04/03 00:16:21;;;;;;;;;0.67;0.67;;;;;15.62;100.00;100064.53;2104445;28;46773;-65
2024/04/03 00:17:21;;;;;;;;;0.00;0.00;;;;;15.60;100.00;100070.84;2105016;28;45641;-65
2024/04/03 00:18:23;;;;;;;;;0.67;0.67;;;;;15.59;100.00;100069.13;2101623;28;46850;-65
2024/04/03 00:19:23;;;;;;;;;0.00;0.00;;;;;15.58;100.00;100063.81;2103454;28;46212;-64
2024/04/03 00:20:24;;;;;;;;;1.33;0.33;;;;;15.58;100.00;100071.84;2100063;27;46301;-65
2024/04/03 00:21:25;;;;;;;;;0.00;0.00;;;;;15.58;100.00;100069.16;2104390;27;46179;-65
2024/04/03 00:22:25;;;;;;;;;0.67;0.67;;;;;15.57;100.00;100064.75;2101433;28;46551;-64
2024/04/03 00:23:25;;;;;;;;;0.00;0.00;;;;;15.58;100.00;100063.81;2101328;28;46907;-65
2024/04/03 00:24:26;;;;;;;;;0.33;0.33;;;;;15.59;100.00;100062.88;2099858;28;46468;-65
2024/04/03 00:25:26;;;;;;;;;0.00;0.00;;;;;15.57;100.00;100062.97;2096034;28;45663;-65
2024/04/03 00:26:26;;;;;;;;;0.00;0.00;;;;;15.58;100.00;100061.13;2095992;28;46696;-65
2024/04/03 00:27:28;;;;;;;;;0.00;0.00;;;;;15.57;100.00;100062.97;2104212;28;46408;-65
2024/04/03 00:28:30;;;;;;;;;0.00;0.00;;;;;15.57;100.00;100062.97;2099079;27;46753;-64
2024/04/03 00:29:30;;;;;;;;;0.25;0.25;;;;;15.59;100.00;100062.88;2102718;27;47049;-65
2024/04/03 00:30:35;;;;;;;;;1.00;0.00;;;;;15.59;100.00;100057.53;2101445;28;46399;-65
2024/04/03 00:31:38;;;;;;;;;0.75;0.75;;;;;15.58;100.00;100062.00;2099306;27;46939;-64
2024/04/03 00:32:38;;;;;;;;;0.00;0.00;;;;;15.54;100.00;100057.78;2103094;28;46486;-64
2024/04/03 00:33:39;;;;;;;;;0.00;0.00;;;;;15.55;100.00;100058.63;2100553;28;46413;-65
2024/04/03 00:34:39;;;;;;;;;0.67;0.67;;;;;15.55;100.00;100058.63;2101310;28;46275;-65
2024/04/03 00:35:40;;;;;;;;;0.00;0.00;;;;;15.53;100.00;100049.84;2104364;27;46949;-64
2024/04/03 00:36:40;;;;;;;;;0.00;0.00;;;;;15.53;100.00;100053.38;2098812;28;46232;-64
2024/04/03 00:37:40;;;;;;;;;0.00;0.00;;;;;15.54;100.00;100047.06;2105070;27;46289;-65
2024/04/03 00:38:40;;;;;;;;;2.00;0.33;;;;;15.53;100.00;100042.69;2104662;27;46377;-65
2024/04/03 00:39:41;;;;;;;;;0.00;0.00;;;;;15.53;100.00;100050.69;2104813;27;46556;-64
2024/04/03 00:40:41;;;;;;;;;0.00;0.00;;;;;15.54;100.00;100044.41;2103902;28;46797;-64
2024/04/03 00:41:41;;;;;;;;;1.00;1.00;;;;;15.57;100.00;100040.69;2104322;28;46629;-63
2024/04/03 00:42:42;;;;;;;;;0.00;0.00;;;;;15.57;100.00;100038.03;2103038;28;46511;-65
2024/04/03 00:43:42;;;;;;;;;1.00;1.00;;;;;15.56;100.00;100038.97;2105456;28;46383;-65
2024/04/03 00:44:47;;;;;;;;;0.33;0.33;;;;;15.56;100.00;100034.47;2105687;27;46741;-64
2024/04/03 00:45:49;;;;;;;;;0.75;0.75;;;;;15.55;100.00;100038.09;2105090;27;46503;-64
2024/04/03 00:46:51;;;;;;;;;0.00;0.00;;;;;15.56;100.00;100033.63;2101980;27;46820;-64
2024/04/03 00:47:51;;;;;;;;;0.25;0.25;;;;;15.53;100.00;100034.66;2098835;28;46470;-63
2024/04/03 00:48:52;;;;;;;;;0.00;0.00;;;;;15.54;100.00;100032.84;2104142;28;46694;-65
2024/04/03 00:49:53;;;;;;;;;0.33;0.33;;;;;15.54;100.00;100039.06;2104696;27;46509;-65
2024/04/03 00:50:55;;;;;;;;;1.00;1.00;;;;;15.53;100.00;100025.78;2098705;27;46143;-64
2024/04/03 00:51:56;;;;;;;;;0.25;0.25;;;;;15.53;100.00;100029.31;2102464;28;46724;-64
2024/04/03 00:52:57;;;;;;;;;0.67;0.67;;;;;15.53;100.00;100036.47;2099568;28;46202;-65
2024/04/03 00:53:57;;;;;;;;;0.67;0.67;;;;;15.51;100.00;100028.53;2104539;28;46541;-65
2024/04/03 00:54:57;;;;;;;;;1.00;1.00;;;;;15.52;100.00;100026.72;2104336;27;46362;-64
2024/04/03 00:55:58;;;;;;;;;0.33;0.33;;;;;15.51;100.00;100019.63;2096828;28;46251;-65
2024/04/03 00:56:59;;;;;;;;;0.00;0.00;;;;;15.54;100.00;100019.47;2105214;28;46295;-65
2024/04/03 00:58:02;;;;;;;;;0.00;0.00;;;;;15.53;100.00;100013.25;2100953;27;46551;-64
2024/04/03 00:59:02;;;;;;;;;1.00;0.75;;;;;15.53;100.00;100015.06;2105336;27;46692;-65
2024/04/03 01:00:03;;;;;;;;;0.00;0.00;;;;;15.53;100.00;100015.94;2104596;27;46669;-64
2024/04/03 01:01:04;;;;;;;;;2.67;0.33;;;;;15.53;100.00;100013.25;2112904;27;46284;-64
2024/04/03 01:02:05;;;;;;;;;0.00;0.00;;;;;15.55;100.00;100013.19;2111509;27;46233;-65
2024/04/03 01:03:06;;;;;;;;;1.00;1.00;;;;;15.54;100.00;100014.97;2102336;27;46448;-64
2024/04/03 01:04:06;;;;;;;;;0.00;0.00;;;;;15.55;100.00;100011.38;2104884;27;45188;-65
2024/04/03 01:05:06;;;;;;;;;0.33;0.33;;;;;15.54;100.00;100012.31;2105895;27;46088;-64
2024/04/03 01:06:08;;;;;;;;;0.67;0.00;;;;;15.55;100.00;100015.84;2104605;28;47104;-64
2024/04/03 01:07:08;;;;;;;;;0.75;0.75;;;;;15.54;100.00;100011.44;2105031;28;46806;-63
2024/04/03 01:08:09;;;;;;;;;0.00;0.00;;;;;15.50;100.00;100009.84;2104058;27;45600;-65
2024/04/03 01:09:09;;;;;;;;;0.00;0.00;;;;;15.49;100.00;100006.31;2102533;28;45909;-64
2024/04/03 01:10:10;;;;;;;;;1.33;1.33;;;;;15.49;100.00;100011.66;2102135;28;46056;-65
2024/04/03 01:11:11;;;;;;;;;0.00;0.00;;;;;15.50;100.00;100009.84;2105139;28;46167;-64
2024/04/03 01:12:11;;;;;;;;;0.00;0.00;;;;;15.49;100.00;100006.31;2104671;27;47032;-65
2024/04/03 01:13:12;;;;;;;;;0.67;0.67;;;;;15.50;100.00;100001.84;2103062;27;46575;-64
2024/04/03 01:14:13;;;;;;;;;2.00;1.00;;;;;15.47;100.00;100002.00;2099423;27;45975;-64
2024/04/03 01:15:13;;;;;;;;;0.00;0.00;;;;;15.45;100.00;100002.09;2099177;28;46790;-64
2024/04/03 01:16:13;;;;;;;;;1.33;0.33;;;;;15.44;100.00;100000.38;2103510;28;46804;-64
2024/04/03 01:17:14;;;;;;;;;0.00;0.00;;;;;15.41;100.00;99995.19;2104630;28;46690;-65
2024/04/03 01:18:14;;;;;;;;;0.67;0.33;;;;;15.41;100.00;99991.66;2105149;28;46298;-64
2024/04/03 01:19:15;;;;;;;;;0.33;0.33;;;;;15.41;100.00;99994.34;2103086;27;45736;-65
2024/04/03 01:20:18;;;;;;;;;0.33;0.33;;;;;15.39;100.00;99989.06;2101388;28;46269;-64
2024/04/03 01:21:18;;;;;;;;;0.75;0.75;;;;;15.39;100.00;99993.56;2104009;27;46513;-65
2024/04/03 01:22:19;;;;;;;;;0.67;0.67;;;;;15.39;100.00;99998.91;2100492;28;46900;-65
2024/04/03 01:23:20;;;;;;;;;0.33;0.33;;;;;15.38;100.00;99994.50;2095372;28;46059;-65
2024/04/03 01:24:23;;;;;;;;;0.50;0.50;;;;;15.38;100.00;99995.38;2094817;28;45728;-64
2024/04/03 01:25:23;;;;;;;;;0.50;0.50;;;;;15.36;100.00;99994.56;2098767;28;45606;-65
2024/04/03 01:26:25;;;;;;;;;1.00;1.00;;;;;15.36;100.00;99988.34;2100378;28;45958;-64
2024/04/03 01:27:25;;;;;;;;;0.00;0.00;;;;;15.37;100.00;99987.41;2102407;28;46428;-65
2024/04/03 01:28:25;;;;;;;;;1.00;1.00;;;;;15.38;100.00;99990.00;2104618;27;46515;-64
2024/04/03 01:29:26;;;;;;;;;1.00;0.67;;;;;15.35;100.00;99984.81;2104824;28;45960;-64
2024/04/03 01:30:26;;;;;;;;;0.67;0.67;;;;;15.36;100.00;99983.00;2102587;28;47058;-64
2024/04/03 01:31:26;;;;;;;;;2.00;0.67;;;;;15.35;100.00;99983.94;2103725;28;46620;-64
2024/04/03 01:32:28;;;;;;;;;2.00;1.00;;;;;15.34;100.00;99984.88;2104923;28;46382;-65
2024/04/03 01:33:28;;;;;;;;;1.25;0.75;;;;;15.33;100.00;99984.03;2103152;28;46961;-65
2024/04/03 01:34:28;;;;;;;;;0.67;0.67;;;;;15.32;100.00;99985.84;2103643;28;46268;-65
2024/04/03 01:35:28;;;;;;;;;0.67;0.67;;;;;15.32;100.00;99980.50;2100968;28;46224;-66
2024/04/03 01:36:29;;;;;;;;;1.00;0.67;;;;;15.21;100.00;99985.53;2102083;28;46524;-66
2024/04/03 01:37:29;;;;;;;;;0.00;0.00;;;;;15.17;100.00;99975.09;2101107;28;46812;-65
2024/04/03 01:38:29;;;;;;;;;1.67;1.00;;;;;15.14;100.00;99969.91;2104392;27;46119;-65
2024/04/03 01:39:32;;;;;;;;;0.33;0.33;;;;;15.14;100.00;99969.91;2101603;27;46472;-64
2024/04/03 01:40:32;;;;;;;;;0.75;0.75;;;;;15.21;100.00;99974.84;2104788;27;46379;-66
2024/04/03 01:41:32;;;;;;;;;2.00;0.33;;;;;15.22;100.00;99965.88;2104644;27;46944;-64
2024/04/03 01:42:33;;;;;;;;;0.67;0.67;;;;;15.24;100.00;99966.66;2103647;28;46134;-64
2024/04/03 01:43:33;;;;;;;;;2.00;2.00;;;;;15.23;100.00;99967.59;2100977;27;46575;-64
2024/04/03 01:44:33;;;;;;;;;1.00;1.00;;;;;15.23;100.00;99964.94;2102561;27;46838;-65
2024/04/03 01:45:34;;;;;;;;;0.67;0.67;;;;;15.23;100.00;99962.25;2104248;28;46140;-65
2024/04/03 01:46:34;;;;;;;;;1.00;0.33;;;;;15.22;100.00;99959.66;2103405;28;45302;-64
2024/04/03 01:47:34;;;;;;;;;1.67;0.67;;;;;15.21;100.00;99953.47;2100627;28;46526;-64
2024/04/03 01:48:35;;;;;;;;;0.67;0.67;;;;;15.20;100.00;99956.22;2103808;28;46759;-65
2024/04/03 01:49:35;;;;;;;;;1.00;1.00;;;;;15.18;100.00;99958.97;2110573;27;46247;-65
2024/04/03 01:50:38;;;;;;;;;1.00;1.00;;;;;15.17;100.00;99959.06;2112560;27;46684;-63
2024/04/03 01:51:38;;;;;;;;;0.25;0.25;;;;;15.15;100.00;99961.81;2105944;27;46120;-65
2024/04/03 01:52:38;;;;;;;;;1.00;1.00;;;;;15.14;100.00;99960.09;2099942;28;46362;-64
2024/04/03 01:53:39;;;;;;;;;0.67;0.67;;;;;15.15;100.00;99950.25;2098541;28;46161;-65
2024/04/03 01:54:39;;;;;;;;;0.67;0.67;;;;;15.15;100.00;99950.25;2101930;28;45261;-64
2024/04/03 01:55:39;;;;;;;;;0.33;0.33;;;;;15.14;100.00;99957.41;2099293;28;46649;-64
2024/04/03 01:56:39;;;;;;;;;1.67;1.67;;;;;15.15;100.00;99950.25;2102316;28;46347;-65
2024/04/03 01:57:40;;;;;;;;;1.33;1.33;;;;;15.14;100.00;99945.88;2104148;27;46459;-65
2024/04/03 01:58:42;;;;;;;;;1.00;1.00;;;;;15.11;100.00;99949.53;2103148;27;46247;-64
2024/04/03 01:59:42;;;;;;;;;1.25;1.25;;;;;15.10;100.00;99947.81;2099576;28;46710;-64
2024/04/03 02:00:42;;;;;;;;;0.67;0.67;;;;;15.10;100.00;99941.59;2104263;28;46195;-64
2024/04/03 02:01:43;;;;;;;;;0.67;0.67;;;;;15.09;100.00;99940.75;2104563;28;46259;-65
2024/04/03 02:02:43;;;;;;;;;0.67;0.67;;;;;15.10;100.00;99945.13;2104014;28;46904;-64
2024/04/03 02:03:43;;;;;;;;;1.00;1.00;;;;;15.10;100.00;99942.47;2101765;28;46519;-64
2024/04/03 02:04:44;;;;;;;;;1.00;1.00;;;;;15.11;100.00;99943.34;2104686;27;46792;-65
2024/04/03 02:05:45;;;;;;;;;1.00;1.00;;;;;15.12;100.00;99943.28;2089524;28;46715;-65
2024/04/03 02:06:45;;;;;;;;;1.00;1.00;;;;;15.12;100.00;99937.94;2095090;28;46369;-65
2024/04/03 02:07:47;;;;;;;;;0.67;0.67;;;;;15.12;100.00;99927.25;2104839;27;46397;-64
2024/04/03 02:08:47;;;;;;;;;1.00;1.00;;;;;15.14;100.00;99940.53;2102134;27;45850;-65
2024/04/03 02:09:47;;;;;;;;;0.33;0.33;;;;;15.16;100.00;99939.50;2103599;28;46890;-64
2024/04/03 02:10:48;;;;;;;;;1.00;0.33;;;;;15.16;100.00;99931.47;2099228;27;46997;-65
2024/04/03 02:11:48;;;;;;;;;1.00;1.00;;;;;15.16;100.00;99926.13;2102221;27;46321;-65
2024/04/03 02:12:48;;;;;;;;;1.00;1.00;;;;;15.16;100.00;99928.78;2103656;27;46260;-66
2024/04/03 02:13:48;;;;;;;;;0.67;0.67;;;;;15.17;100.00;99930.53;2103828;27;46068;-66
2024/04/03 02:14:49;;;;;;;;;1.00;1.00;;;;;15.16;100.00;99927.94;2105459;27;46293;-65
2024/04/03 02:15:52;;;;;;;;;1.00;1.00;;;;;15.14;100.00;99921.81;2104849;28;46612;-65
2024/04/03 02:16:54;;;;;;;;;1.25;1.00;;;;;15.12;100.00;99921.00;2105555;27;46617;-65
2024/04/03 02:17:54;;;;;;;;;0.00;0.00;;;;;15.11;100.00;99924.63;2105168;27;45686;-65
2024/04/03 02:18:55;;;;;;;;;0.67;0.67;;;;;15.08;100.00;99931.00;2104592;27;46462;-65
2024/04/03 02:19:55;;;;;;;;;1.00;1.00;;;;;15.09;100.00;99926.53;2106102;27;46281;-65
2024/04/03 02:20:55;;;;;;;;;1.00;1.00;;;;;15.08;100.00;99917.63;2105016;28;46931;-64
2024/04/03 02:21:56;;;;;;;;;1.00;1.00;;;;;15.10;100.00;99914.88;2104999;27;45942;-65
2024/04/03 02:22:56;;;;;;;;;1.33;1.33;;;;;15.10;100.00;99920.22;2087824;28;46251;-65
2024/04/03 02:23:56;;;;;;;;;1.00;1.00;;;;;15.08;100.00;99919.44;2087579;28;46874;-66
2024/04/03 02:24:57;;;;;;;;;1.00;1.00;;;;;15.08;100.00;99912.28;2101958;28;46316;-65
2024/04/03 02:25:57;;;;;;;;;1.67;1.67;;;;;15.10;100.00;99914.88;2099008;28;46273;-64
2024/04/03 02:26:57;;;;;;;;;0.67;0.67;;;;;15.10;100.00;99907.72;2100673;27;47387;-65
2024/04/03 02:27:58;;;;;;;;;1.67;1.00;;;;;15.11;100.00;99913.94;2100264;28;46437;-66
2024/04/03 02:28:58;;;;;;;;;0.67;0.67;;;;;15.12;100.00;99910.31;2103878;28;46081;-66
2024/04/03 02:29:59;;;;;;;;;0.67;0.67;;;;;15.11;100.00;99914.78;2105965;27;46128;-65
2024/04/03 02:31:01;;;;;;;;;1.00;1.00;;;;;15.12;100.00;99913.00;2106145;27;46317;-65
2024/04/03 02:32:02;;;;;;;;;0.75;0.75;;;;;15.10;100.00;99907.72;2104903;28;47076;-65
2024/04/03 02:33:03;;;;;;;;;1.00;1.00;;;;;15.10;100.00;99910.41;2106189;28;47031;-63
2024/04/03 02:34:03;;;;;;;;;1.00;1.00;;;;;15.09;100.00;99903.34;2103269;28;46738;-65
2024/04/03 02:35:04;;;;;;;;;0.67;0.67;;;;;15.10;100.00;99918.41;2106174;27;46601;-65
2024/04/03 02:36:09;;;;;;;;;0.33;0.33;;;;;15.09;100.00;99913.16;2105926;27;46729;-65
2024/04/03 02:37:09;;;;;;;;;1.00;1.00;;;;;15.08;100.00;99909.63;2104802;27;46382;-64
2024/04/03 02:38:09;;;;;;;;;2.00;2.00;;;;;15.08;100.00;99906.94;2105271;28;45734;-64
2024/04/03 02:39:10;;;;;;;;;0.33;0.33;;;;;15.10;100.00;99906.88;2097673;28;46289;-64
2024/04/03 02:40:10;;;;;;;;;1.00;1.00;;;;;15.11;100.00;99908.59;2089342;28;45924;-65
2024/04/03 02:41:10;;;;;;;;;1.00;1.00;;;;;15.10;100.00;99906.88;2095145;28;45714;-64
2024/04/03 02:42:11;;;;;;;;;3.33;2.00;;;;;15.10;100.00;99909.53;2100917;28;46746;-64
2024/04/03 02:43:11;;;;;;;;;2.00;1.00;;;;;15.12;100.00;99905.88;2101401;28;46621;-64
2024/04/03 02:44:11;;;;;;;;;0.00;0.00;;;;;15.01;100.00;99898.41;2100785;28;46533;-66
2024/04/03 02:45:12;;;;;;;;;1.00;1.00;;;;;14.97;100.00;99904.84;2105546;27;46358;-64
2024/04/03 02:46:12;;;;;;;;;2.00;1.00;;;;;14.98;100.00;99903.03;2080031;28;46445;-64
2024/04/03 02:47:12;;;;;;;;;1.00;1.00;;;;;14.97;100.00;99907.50;2094928;28;45116;-63
2024/04/03 02:48:12;;;;;;;;;1.00;1.00;;;;;15.08;100.00;99898.94;2090854;28;46459;-64
2024/04/03 02:49:13;;;;;;;;;0.00;0.00;;;;;15.01;100.00;99909.09;2089134;28;46459;-64
2024/04/03 02:50:13;;;;;;;;;0.67;0.67;;;;;15.01;100.00;99909.09;2094824;28;45457;-65
2024/04/03 02:51:14;;;;;;;;;2.00;0.67;;;;;15.00;100.00;99895.81;2094209;28;46298;-64
2024/04/03 02:52:15;;;;;;;;;0.25;0.25;;;;;15.00;100.00;99898.50;2091957;28;45893;-63
2024/04/03 02:53:16;;;;;;;;;0.67;0.67;;;;;15.00;100.00;99903.84;2090125;28;46611;-64
2024/04/03 02:54:16;;;;;;;;;2.75;0.75;;;;;14.98;100.00;99895.88;2096189;28;47462;-63
2024/04/03 02:55:17;;;;;;;;;0.67;0.67;;;;;14.96;100.00;99895.09;2092631;28;46508;-64
2024/04/03 02:56:17;;;;;;;;;2.00;0.00;;;;;15.03;100.00;99890.31;2095817;28;46642;-65
2024/04/03 02:57:17;;;;;;;;;0.67;0.67;;;;;15.08;100.00;99890.06;2096432;28;46737;-64
2024/04/03 02:58:18;;;;;;;;;0.67;0.67;;;;;15.07;100.00;99886.53;2090219;28;46417;-65
2024/04/03 02:59:18;;;;;;;;;0.67;0.67;;;;;14.98;100.00;99887.00;2087512;28;46314;-65
2024/04/03 03:00:19;;;;;;;;;0.00;0.00;;;;;15.04;100.00;99889.38;2091966;28;46871;-65
2024/04/03 03:01:19;;;;;;;;;1.00;1.00;;;;;15.04;100.00;99886.69;2090989;28;45255;-65
2024/04/03 03:02:19;;;;;;;;;1.00;1.00;;;;;15.04;100.00;99883.16;2096622;28;46961;-64
2024/04/03 03:03:24;;;;;;;;;1.00;1.00;;;;;15.01;100.00;99882.38;2091878;28;46742;-64
2024/04/03 03:04:25;;;;;;;;;1.00;1.00;;;;;15.02;100.00;99883.25;2087856;28;45060;-64
2024/04/03 03:05:25;;;;;;;;;1.00;1.00;;;;;15.01;100.00;99886.88;2087958;28;46258;-64
2024/04/03 03:06:25;;;;;;;;;1.00;1.00;;;;;15.01;100.00;99881.53;2087609;28;46459;-65
2024/04/03 03:07:25;;;;;;;;;0.00;0.00;;;;;15.00;100.00;99883.34;2087219;28;46708;-65
2024/04/03 03:08:30;;;;;;;;;0.67;0.67;;;;;15.02;100.00;99880.56;2087990;28;46562;-65
2024/04/03 03:09:30;;;;;;;;;2.00;2.00;;;;;15.01;100.00;99886.88;2092994;28;46508;-65
2024/04/03 03:10:31;;;;;;;;;0.00;0.00;;;;;15.03;100.00;99882.28;2096113;28;46388;-65
2024/04/03 03:11:31;;;;;;;;;0.00;0.00;;;;;15.04;100.00;99877.81;2098595;28;46708;-65
2024/04/03 03:12:31;;;;;;;;;1.00;1.00;;;;;15.01;100.00;99882.38;2098401;28;46186;-65
2024/04/03 03:13:32;;;;;;;;;1.00;1.00;;;;;15.01;100.00;99878.84;2088687;28;46292;-65
2024/04/03 03:14:32;;;;;;;;;1.00;1.00;;;;;14.99;100.00;99878.94;2089777;28;45399;-65
2024/04/03 03:15:32;;;;;;;;;1.33;0.33;;;;;15.01;100.00;99876.19;2087400;28;46812;-65
2024/04/03 03:16:33;;;;;;;;;1.00;1.00;;;;;15.02;100.00;99873.41;2092331;28;46189;-65
2024/04/03 03:17:33;;;;;;;;;0.67;0.67;;;;;15.01;100.00;99873.50;2093481;28;46652;-65
2024/04/03 03:18:34;;;;;;;;;1.00;1.00;;;;;14.90;100.00;99878.56;2096912;28;46231;-65
2024/04/03 03:19:34;;;;;;;;;1.00;1.00;;;;;14.86;100.00;99871.63;2105350;28;46245;-64
2024/04/03 03:20:34;;;;;;;;;3.00;1.00;;;;;14.96;100.00;99879.06;2103781;27;46340;-66
2024/04/03 03:21:35;;;;;;;;;1.00;1.00;;;;;15.00;100.00;99879.78;2105595;27;46810;-65
2024/04/03 03:22:35;;;;;;;;;1.00;0.33;;;;;15.01;100.00;99873.50;2105693;28;45450;-64
2024/04/03 03:23:35;;;;;;;;;0.33;0.33;;;;;15.01;100.00;99873.50;2103837;27;46260;-66
2024/04/03 03:24:36;;;;;;;;;0.67;0.67;;;;;14.99;100.00;99870.91;2104331;28;46305;-66
2024/04/03 03:25:36;;;;;;;;;2.00;1.00;;;;;14.98;100.00;99876.31;2100612;28;45955;-66
2024/04/03 03:26:36;;;;;;;;;1.00;1.00;;;;;14.98;100.00;99876.31;2104933;28;46816;-63
2024/04/03 03:27:36;;;;;;;;;1.00;1.00;;;;;14.98;100.00;99871.84;2105190;28;46869;-65
2024/04/03 03:28:38;;;;;;;;;0.33;0.00;;;;;14.96;100.00;99867.53;2104082;27;46635;-65
2024/04/03 03:29:38;;;;;;;;;1.00;1.00;;;;;14.98;100.00;99870.97;2104696;27;47182;-65
2024/04/03 03:30:38;;;;;;;;;0.33;0.33;;;;;14.99;100.00;99870.91;2099604;27;50600;-64
2024/04/03 03:31:39;;;;;;;;;0.67;0.67;;;;;15.00;100.00;99877.13;2102064;27;46930;-64
2024/04/03 03:32:39;;;;;;;;;0.00;0.00;;;;;14.97;100.00;99872.78;2103491;27;45936;-64
2024/04/03 03:33:41;;;;;;;;;1.00;1.00;;;;;14.98;100.00;99879.84;2103559;27;46688;-64
2024/04/03 03:34:41;;;;;;;;;1.00;1.00;;;;;14.97;100.00;99870.09;2105505;27;46415;-66
2024/04/03 03:35:48;;;;;;;;;0.00;0.00;;;;;14.98;100.00;99865.63;2105388;28;46928;-66
2024/04/03 03:36:48;;;;;;;;;0.75;0.75;;;;;14.98;100.00;99865.63;2104441;28;46409;-65
2024/04/03 03:37:48;;;;;;;;;1.00;1.00;;;;;14.98;100.00;99871.84;2105491;27;46669;-66
2024/04/03 03:38:49;;;;;;;;;1.00;1.00;;;;;14.97;100.00;99862.09;2105114;27;46825;-64
2024/04/03 03:39:49;;;;;;;;;1.00;1.00;;;;;14.98;100.00;99853.13;2105572;28;46274;-65
2024/04/03 03:40:51;;;;;;;;;1.00;1.00;;;;;15.01;100.00;99860.16;2105422;27;46223;-63
2024/04/03 03:41:51;;;;;;;;;1.00;1.00;;;;;15.00;100.00;99853.94;2104523;27;46985;-64
2024/04/03 03:42:52;;;;;;;;;0.33;0.00;;;;;15.00;100.00;99853.06;2102692;28;46260;-65
2024/04/03 03:43:52;;;;;;;;;1.00;1.00;;;;;15.01;100.00;99857.47;2103853;27;46786;-64
2024/04/03 03:44:53;;;;;;;;;0.00;0.00;;;;;15.00;100.00;99847.72;2105047;28;46686;-64
2024/04/03 03:45:53;;;;;;;;;1.33;0.00;;;;;15.00;100.00;99851.25;2104712;27;46278;-64
2024/04/03 03:46:53;;;;;;;;;1.00;1.00;;;;;14.98;100.00;99857.59;2097672;28;46527;-65
2024/04/03 03:47:53;;;;;;;;;2.00;1.00;;;;;15.01;100.00;99849.47;2103736;28;45700;-64
2024/04/03 03:53:01;;;;;;;;;0.50;0.50;;;;;14.99;100.00;99846.88;2078259;28;46383;-65
2024/04/03 03:54:02;;;;;;;;;0.33;0.33;;;;;14.87;100.00;99839.50;2079359;28;45525;-64
2024/04/03 03:55:04;;;;;;;;;0.00;0.00;;;;;14.84;100.00;99839.66;2078757;28;46696;-64
2024/04/03 03:56:08;;;;;;;;;0.75;0.75;;;;;14.83;100.00;99835.25;2079092;28;46995;-65
2024/04/03 03:57:08;;;;;;;;;0.50;0.50;;;;;14.85;100.00;99844.03;2076113;28;46818;-64
2024/04/03 03:58:08;;;;;;;;;0.00;0.00;;;;;14.85;100.00;99835.16;2078600;28;45854;-64
2024/04/03 03:59:09;;;;;;;;;0.00;0.00;;;;;14.85;100.00;99845.84;2076775;28;46387;-65
2024/04/03 04:00:10;;;;;;;;;0.00;0.00;;;;;14.84;100.00;99836.97;2078738;28;46616;-65
2024/04/03 04:01:11;;;;;;;;;0.75;0.75;;;;;14.83;100.00;99847.75;2078879;28;45853;-65
2024/04/03 04:02:11;;;;;;;;;0.33;0.33;;;;;14.82;100.00;99830.00;2079047;28;46528;-65
2024/04/03 04:03:11;;;;;;;;;1.00;1.00;;;;;14.83;100.00;99839.72;2079079;28;45888;-65
2024/04/03 04:04:12;;;;;;;;;0.00;0.00;;;;;14.82;100.00;99836.19;2078357;28;46483;-64
2024/04/03 04:05:12;;;;;;;;;0.00;0.00;;;;;14.82;100.00;99830.84;2079240;28;46788;-65
2024/04/03 04:06:12;;;;;;;;;0.67;0.67;;;;;14.82;100.00;99838.88;2075577;28;46839;-65
2024/04/03 04:07:13;;;;;;;;;1.00;1.00;;;;;14.83;100.00;99840.59;2075717;28;45656;-64
2024/04/03 04:08:13;;;;;;;;;1.33;1.00;;;;;14.83;100.00;99834.38;2067531;28;46455;-64
2024/04/03 04:09:13;;;;;;;;;1.00;1.00;;;;;14.83;100.00;99834.38;2070801;28;46553;-64
2024/04/03 04:10:14;;;;;;;;;1.33;1.33;;;;;14.81;100.00;99821.13;2073225;28;46467;-63
2024/04/03 04:11:14;;;;;;;;;1.00;1.00;;;;;14.82;100.00;99838.00;2079103;28;46764;-63
2024/04/03 04:12:15;;;;;;;;;2.00;2.00;;;;;14.82;100.00;99838.88;2075470;28;45535;-63
2024/04/03 04:13:16;;;;;;;;;2.00;1.00;;;;;14.81;100.00;99833.63;2079337;28;46778;-64
2024/04/03 04:14:16;;;;;;;;;1.00;1.00;;;;;14.79;100.00;99825.69;2074773;28;46542;-64
2024/04/03 04:15:17;;;;;;;;;1.00;1.00;;;;;14.78;100.00;99831.13;2078987;28;46290;-64
2024/04/03 04:16:17;;;;;;;;;1.00;1.00;;;;;14.77;100.00;99829.38;2079052;28;46425;-65
2024/04/03 04:17:19;;;;;;;;;1.00;1.00;;;;;14.77;100.00;99827.59;2074861;28;46996;-64
2024/04/03 04:18:20;;;;;;;;;0.75;0.75;;;;;14.77;100.00;99824.91;2070447;28;46811;-65
2024/04/03 04:19:20;;;;;;;;;0.00;0.00;;;;;14.90;100.00;99825.13;2068979;28;46537;-64
2024/04/03 04:20:21;;;;;;;;;0.25;0.25;;;;;14.91;100.00;99826.84;2075821;28;46872;-65
2024/04/03 04:21:22;;;;;;;;;1.00;1.00;;;;;14.93;100.00;99824.94;2079601;28;45886;-65
2024/04/03 04:22:23;;;;;;;;;1.00;1.00;;;;;14.93;100.00;99825.81;2075512;28;46433;-64
2024/04/03 04:23:24;;;;;;;;;1.00;1.00;;;;;14.94;100.00;99824.84;2070817;28;46857;-63
2024/04/03 04:24:24;;;;;;;;;1.00;1.00;;;;;14.96;100.00;99824.78;2070757;28;46471;-65
2024/04/03 04:25:25;;;;;;;;;0.33;0.33;;;;;14.97;100.00;99822.00;2077827;28;46652;-64
2024/04/03 04:26:25;;;;;;;;;1.00;1.00;;;;;14.97;100.00;99819.34;2077183;28;46678;-64
2024/04/03 04:27:26;;;;;;;;;2.00;1.00;;;;;14.97;100.00;99816.66;2087391;28;46304;-63
2024/04/03 04:28:26;;;;;;;;;1.00;0.67;;;;;14.97;100.00;99819.34;2101413;27;45096;-64
2024/04/03 04:29:28;;;;;;;;;1.00;1.00;;;;;14.97;100.00;99823.81;2104563;27;46600;-64
2024/04/03 04:30:28;;;;;;;;;1.50;1.50;;;;;14.95;100.00;99815.91;2087072;28;46532;-65
2024/04/03 04:31:28;;;;;;;;;1.00;1.00;;;;;14.96;100.00;99820.28;2079294;28;46609;-64
2024/04/03 04:32:29;;;;;;;;;0.33;0.33;;;;;14.97;100.00;99815.81;2095510;28;46297;-64
2024/04/03 04:33:30;;;;;;;;;1.00;1.00;;;;;14.97;100.00;99811.31;2105197;28;46711;-64
2024/04/03 04:34:31;;;;;;;;;1.50;1.50;;;;;14.98;100.00;99807.72;2102066;27;46387;-64
2024/04/03 04:35:31;;;;;;;;;1.00;1.00;;;;;14.97;100.00;99810.47;2105394;28;46842;-65
2024/04/03 04:36:32;;;;;;;;;2.00;1.00;;;;;14.98;100.00;99815.72;2104568;27;46312;-64
2024/04/03 04:37:32;;;;;;;;;1.00;1.00;;;;;14.98;100.00;99809.53;2099462;27;46289;-64
2024/04/03 04:38:33;;;;;;;;;1.00;1.00;;;;;14.99;100.00;99806.78;2105289;27;46563;-66
2024/04/03 04:39:33;;;;;;;;;3.00;2.00;;;;;14.98;100.00;99814.88;2098656;27;46306;-65
2024/04/03 04:40:34;;;;;;;;;1.00;1.00;;;;;14.99;100.00;99820.16;2102568;27;45392;-66
2024/04/03 04:41:34;;;;;;;;;2.00;1.00;;;;;14.99;100.00;99812.13;2099087;28;46610;-64
2024/04/03 04:42:34;;;;;;;;;1.00;1.00;;;;;15.01;100.00;99812.91;2100651;27;46281;-64
2024/04/03 04:43:35;;;;;;;;;2.33;1.00;;;;;14.99;100.00;99814.81;2102479;28;46640;-64
2024/04/03 04:44:35;;;;;;;;;1.00;1.00;;;;;14.99;100.00;99814.81;2100894;28;46613;-65